sensor_id;sensor_type;location;lat;lon;timestamp;P1;durP1;ratioP1;P2;durP2;ratioP2
61673;SDS011;47573;43.832;5.974;2023-03-14T00:03:36;337.63;;;244.07;;
61673;SDS011;47573;43.832;5.974;2023-03-14T00:10:18;335.77;;;251.00;;
61673;SDS011;47573;43.832;5.974;2023-03-14T00:16:58;341.85;;;253.70;;
61673;SDS011;47573;43.832;5.974;2023-03-14T00:23:40;341.77;;;251.93;;
61673;SDS011;47573;43.832;5.974;2023-03-14T00:30:23;286.27;;;207.45;;
61673;SDS011;47573;43.832;5.974;2023-03-14T00:37:03;334.60;;;243.63;;
61673;SDS011;47573;43.832;5.974;2023-03-14T00:43:44;346.17;;;252.17;;
61673;SDS011;47573;43.832;5.974;2023-03-14T00:50:26;355.20;;;259.92;;
61673;SDS011;47573;43.832;5.974;2023-03-14T00:57:07;363.60;;;269.40;;
61673;SDS011;47573;43.832;5.974;2023-03-14T01:03:47;384.43;;;282.57;;
61673;SDS011;47573;43.832;5.974;2023-03-14T01:10:32;373.63;;;275.38;;
61673;SDS011;47573;43.832;5.974;2023-03-14T01:17:12;365.50;;;273.70;;
61673;SDS011;47573;43.832;5.974;2023-03-14T01:23:54;363.17;;;268.17;;
61673;SDS011;47573;43.832;5.974;2023-03-14T01:30:37;352.65;;;261.83;;
61673;SDS011;47573;43.832;5.974;2023-03-14T01:37:18;350.02;;;256.60;;
61673;SDS011;47573;43.832;5.974;2023-03-14T01:43:58;335.70;;;247.77;;
61673;SDS011;47573;43.832;5.974;2023-03-14T01:50:40;328.48;;;239.07;;
61673;SDS011;47573;43.832;5.974;2023-03-14T01:57:22;316.23;;;230.10;;
61673;SDS011;47573;43.832;5.974;2023-03-14T02:04:07;310.67;;;226.80;;
61673;SDS011;47573;43.832;5.974;2023-03-14T02:10:50;303.00;;;217.32;;
61673;SDS011;47573;43.832;5.974;2023-03-14T02:17:31;286.30;;;205.57;;
61673;SDS011;47573;43.832;5.974;2023-03-14T02:24:13;278.90;;;199.82;;
61673;SDS011;47573;43.832;5.974;2023-03-14T02:31:03;261.60;;;185.00;;
61673;SDS011;47573;43.832;5.974;2023-03-14T02:37:45;253.55;;;180.82;;
61673;SDS011;47573;43.832;5.974;2023-03-14T02:44:29;253.02;;;178.30;;
61673;SDS011;47573;43.832;5.974;2023-03-14T02:51:11;256.83;;;182.88;;
61673;SDS011;47573;43.832;5.974;2023-03-14T02:57:52;253.90;;;173.88;;
61673;SDS011;47573;43.832;5.974;2023-03-14T03:04:33;245.30;;;170.68;;
61673;SDS011;47573;43.832;5.974;2023-03-14T03:11:14;241.97;;;167.73;;
61673;SDS011;47573;43.832;5.974;2023-03-14T03:17:55;236.23;;;163.90;;
61673;SDS011;47573;43.832;5.974;2023-03-14T03:24:35;233.17;;;161.50;;
61673;SDS011;47573;43.832;5.974;2023-03-14T03:31:17;231.60;;;160.10;;
61673;SDS011;47573;43.832;5.974;2023-03-14T03:37:58;227.68;;;153.70;;
61673;SDS011;47573;43.832;5.974;2023-03-14T03:44:38;226.48;;;153.20;;
61673;SDS011;47573;43.832;5.974;2023-03-14T03:51:20;220.17;;;151.23;;
61673;SDS011;47573;43.832;5.974;2023-03-14T03:58:01;217.75;;;147.90;;
61673;SDS011;47573;43.832;5.974;2023-03-14T04:04:41;204.97;;;139.80;;
61673;SDS011;47573;43.832;5.974;2023-03-14T04:11:23;201.63;;;138.57;;
61673;SDS011;47573;43.832;5.974;2023-03-14T04:18:03;198.55;;;134.50;;
61673;SDS011;47573;43.832;5.974;2023-03-14T04:24:44;185.35;;;128.60;;
61673;SDS011;47573;43.832;5.974;2023-03-14T04:31:26;185.97;;;125.63;;
61673;SDS011;47573;43.832;5.974;2023-03-14T04:38:06;177.63;;;121.70;;
61673;SDS011;47573;43.832;5.974;2023-03-14T04:44:47;168.90;;;117.03;;
61673;SDS011;47573;43.832;5.974;2023-03-14T04:51:28;164.97;;;115.30;;
61673;SDS011;47573;43.832;5.974;2023-03-14T04:58:09;166.15;;;114.60;;
61673;SDS011;47573;43.832;5.974;2023-03-14T05:04:49;159.40;;;110.97;;
61673;SDS011;47573;43.832;5.974;2023-03-14T05:11:31;155.57;;;108.30;;
61673;SDS011;47573;43.832;5.974;2023-03-14T05:18:12;157.30;;;106.32;;
61673;SDS011;47573;43.832;5.974;2023-03-14T05:24:52;150.43;;;105.13;;
61673;SDS011;47573;43.832;5.974;2023-03-14T05:31:34;147.67;;;100.27;;
61673;SDS011;47573;43.832;5.974;2023-03-14T05:38:14;142.73;;;98.40;;
61673;SDS011;47573;43.832;5.974;2023-03-14T05:44:55;145.33;;;101.20;;
61673;SDS011;47573;43.832;5.974;2023-03-14T05:51:37;147.33;;;101.43;;
61673;SDS011;47573;43.832;5.974;2023-03-14T05:58:17;152.90;;;106.05;;
61673;SDS011;47573;43.832;5.974;2023-03-14T06:04:57;163.13;;;104.90;;
61673;SDS011;47573;43.832;5.974;2023-03-14T06:11:39;143.47;;;101.00;;
61673;SDS011;47573;43.832;5.974;2023-03-14T06:18:20;214.00;;;116.88;;
61673;SDS011;47573;43.832;5.974;2023-03-14T06:25:00;211.83;;;110.77;;
61673;SDS011;47573;43.832;5.974;2023-03-14T06:31:42;249.00;;;118.33;;
61673;SDS011;47573;43.832;5.974;2023-03-14T06:38:23;177.50;;;105.40;;
61673;SDS011;47573;43.832;5.974;2023-03-14T06:45:03;151.50;;;96.57;;
61673;SDS011;47573;43.832;5.974;2023-03-14T06:51:46;130.07;;;93.80;;
61673;SDS011;47573;43.832;5.974;2023-03-14T06:58:27;244.95;;;118.93;;
61673;SDS011;47573;43.832;5.974;2023-03-14T07:05:07;369.73;;;156.30;;
61673;SDS011;47573;43.832;5.974;2023-03-14T07:11:49;128.00;;;90.97;;
61673;SDS011;47573;43.832;5.974;2023-03-14T07:18:30;145.25;;;93.03;;
61673;SDS011;47573;43.832;5.974;2023-03-14T07:25:10;120.25;;;87.82;;
61673;SDS011;47573;43.832;5.974;2023-03-14T07:31:52;121.17;;;88.40;;
61673;SDS011;47573;43.832;5.974;2023-03-14T07:38:33;119.28;;;85.20;;
61673;SDS011;47573;43.832;5.974;2023-03-14T07:45:13;148.03;;;91.57;;
61673;SDS011;47573;43.832;5.974;2023-03-14T07:51:55;119.93;;;85.03;;
61673;SDS011;47573;43.832;5.974;2023-03-14T07:58:35;123.38;;;87.03;;
61673;SDS011;47573;43.832;5.974;2023-03-14T08:05:16;110.97;;;82.80;;
61673;SDS011;47573;43.832;5.974;2023-03-14T08:11:58;115.30;;;82.63;;
61673;SDS011;47573;43.832;5.974;2023-03-14T08:18:39;110.10;;;81.28;;
61673;SDS011;47573;43.832;5.974;2023-03-14T08:25:19;518.67;;;188.67;;
61673;SDS011;47573;43.832;5.974;2023-03-14T08:32:01;111.60;;;82.27;;
61673;SDS011;47573;43.832;5.974;2023-03-14T08:38:41;106.28;;;78.10;;
61673;SDS011;47573;43.832;5.974;2023-03-14T08:45:22;165.70;;;92.77;;
61673;SDS011;47573;43.832;5.974;2023-03-14T08:52:04;108.47;;;80.37;;
61673;SDS011;47573;43.832;5.974;2023-03-14T08:58:45;108.00;;;76.22;;
61673;SDS011;47573;43.832;5.974;2023-03-14T09:05:25;154.60;;;105.43;;
61673;SDS011;47573;43.832;5.974;2023-03-14T09:12:07;242.38;;;145.95;;
61673;SDS011;47573;43.832;5.974;2023-03-14T09:18:47;243.15;;;144.23;;
61673;SDS011;47573;43.832;5.974;2023-03-14T09:25:28;236.95;;;142.27;;
61673;SDS011;47573;43.832;5.974;2023-03-14T09:32:10;233.93;;;139.23;;
61673;SDS011;47573;43.832;5.974;2023-03-14T09:38:50;230.10;;;139.38;;
61673;SDS011;47573;43.832;5.974;2023-03-14T09:45:31;237.40;;;140.57;;
61673;SDS011;47573;43.832;5.974;2023-03-14T09:52:17;621.63;;;279.55;;
61673;SDS011;47573;43.832;5.974;2023-03-14T09:59:02;213.43;;;131.95;;
61673;SDS011;47573;43.832;5.974;2023-03-14T10:05:45;208.27;;;129.20;;
61673;SDS011;47573;43.832;5.974;2023-03-14T10:12:32;205.00;;;126.85;;
61673;SDS011;47573;43.832;5.974;2023-03-14T10:19:14;1184.72;;;517.40;;
61673;SDS011;47573;43.832;5.974;2023-03-14T10:26:00;250.55;;;138.20;;
61673;SDS011;47573;43.832;5.974;2023-03-14T10:32:46;196.18;;;121.07;;
61673;SDS011;47573;43.832;5.974;2023-03-14T10:39:27;189.00;;;118.45;;
61673;SDS011;47573;43.832;5.974;2023-03-14T10:46:16;186.45;;;116.50;;
61673;SDS011;47573;43.832;5.974;2023-03-14T10:53:01;185.13;;;117.40;;
61673;SDS011;47573;43.832;5.974;2023-03-14T10:59:43;236.32;;;132.40;;
61673;SDS011;47573;43.832;5.974;2023-03-14T11:06:25;180.82;;;114.30;;
61673;SDS011;47573;43.832;5.974;2023-03-14T11:13:16;167.32;;;108.65;;
61673;SDS011;47573;43.832;5.974;2023-03-14T11:20:04;175.88;;;109.35;;
61673;SDS011;47573;43.832;5.974;2023-03-14T11:26:58;168.18;;;106.00;;
61673;SDS011;47573;43.832;5.974;2023-03-14T11:33:47;157.10;;;102.43;;
61673;SDS011;47573;43.832;5.974;2023-03-14T11:40:35;156.27;;;100.35;;
61673;SDS011;47573;43.832;5.974;2023-03-14T11:47:19;154.95;;;98.65;;
61673;SDS011;47573;43.832;5.974;2023-03-14T11:54:08;148.45;;;99.05;;
61673;SDS011;47573;43.832;5.974;2023-03-14T12:00:55;152.18;;;97.00;;
61673;SDS011;47573;43.832;5.974;2023-03-14T12:07:38;139.52;;;93.25;;
61673;SDS011;47573;43.832;5.974;2023-03-14T12:14:32;140.45;;;91.97;;
61673;SDS011;47573;43.832;5.974;2023-03-14T12:21:14;136.07;;;88.35;;
61673;SDS011;47573;43.832;5.974;2023-03-14T12:35:22;124.35;;;81.47;;
61673;SDS011;47573;43.832;5.974;2023-03-14T12:42:15;127.97;;;83.07;;
61673;SDS011;47573;43.832;5.974;2023-03-14T12:49:15;124.75;;;81.50;;
61673;SDS011;47573;43.832;5.974;2023-03-14T12:55:58;124.65;;;80.97;;
61673;SDS011;47573;43.832;5.974;2023-03-14T13:02:45;117.70;;;78.15;;
61673;SDS011;47573;43.832;5.974;2023-03-14T13:09:49;120.47;;;77.90;;
61673;SDS011;47573;43.832;5.974;2023-03-14T13:16:36;106.68;;;72.70;;
61673;SDS011;47573;43.832;5.974;2023-03-14T13:23:21;119.15;;;77.00;;
61673;SDS011;47573;43.832;5.974;2023-03-14T13:30:14;110.53;;;71.57;;
61673;SDS011;47573;43.832;5.974;2023-03-14T13:36:57;107.47;;;69.65;;
61673;SDS011;47573;43.832;5.974;2023-03-14T13:43:39;106.37;;;68.17;;
61673;SDS011;47573;43.832;5.974;2023-03-14T13:50:21;99.43;;;64.70;;
61673;SDS011;47573;43.832;5.974;2023-03-14T13:57:03;98.55;;;64.75;;
61673;SDS011;47573;43.832;5.974;2023-03-14T14:03:46;96.75;;;63.55;;
61673;SDS011;47573;43.832;5.974;2023-03-14T14:10:28;97.00;;;62.88;;
61673;SDS011;47573;43.832;5.974;2023-03-14T14:17:12;96.22;;;62.08;;
61673;SDS011;47573;43.832;5.974;2023-03-14T14:23:55;96.95;;;60.55;;
61673;SDS011;47573;43.832;5.974;2023-03-14T14:30:36;91.50;;;60.38;;
61673;SDS011;47573;43.832;5.974;2023-03-14T14:37:19;91.93;;;60.63;;
61673;SDS011;47573;43.832;5.974;2023-03-14T14:44:02;95.38;;;60.28;;
61673;SDS011;47573;43.832;5.974;2023-03-14T14:50:48;87.15;;;56.33;;
61673;SDS011;47573;43.832;5.974;2023-03-14T14:57:38;72.70;;;47.70;;
61673;SDS011;47573;43.832;5.974;2023-03-14T15:04:19;87.80;;;54.63;;
61673;SDS011;47573;43.832;5.974;2023-03-14T15:10:59;81.87;;;54.13;;
61673;SDS011;47573;43.832;5.974;2023-03-14T15:17:41;91.95;;;59.97;;
61673;SDS011;47573;43.832;5.974;2023-03-14T15:24:22;108.43;;;73.10;;
61673;SDS011;47573;43.832;5.974;2023-03-14T15:31:02;113.65;;;77.50;;
61673;SDS011;47573;43.832;5.974;2023-03-14T15:37:44;109.65;;;74.28;;
61673;SDS011;47573;43.832;5.974;2023-03-14T15:44:25;103.65;;;69.82;;
61673;SDS011;47573;43.832;5.974;2023-03-14T15:51:05;104.43;;;68.50;;
61673;SDS011;47573;43.832;5.974;2023-03-14T15:57:47;106.93;;;74.00;;
61673;SDS011;47573;43.832;5.974;2023-03-14T16:04:28;107.00;;;72.95;;
61673;SDS011;47573;43.832;5.974;2023-03-14T16:11:09;109.10;;;75.78;;
61673;SDS011;47573;43.832;5.974;2023-03-14T16:17:53;125.30;;;83.43;;
61673;SDS011;47573;43.832;5.974;2023-03-14T16:24:34;117.93;;;82.32;;
61673;SDS011;47573;43.832;5.974;2023-03-14T16:31:16;123.88;;;86.65;;
61673;SDS011;47573;43.832;5.974;2023-03-14T16:38:00;130.82;;;89.72;;
61673;SDS011;47573;43.832;5.974;2023-03-14T16:51:21;168.57;;;114.15;;
61673;SDS011;47573;43.832;5.974;2023-03-14T16:58:03;172.45;;;116.15;;
61673;SDS011;47573;43.832;5.974;2023-03-14T17:04:44;174.10;;;116.57;;
61673;SDS011;47573;43.832;5.974;2023-03-14T17:11:24;179.50;;;122.53;;
61673;SDS011;47573;43.832;5.974;2023-03-14T17:18:06;200.90;;;132.80;;
61673;SDS011;47573;43.832;5.974;2023-03-14T17:24:47;202.48;;;137.90;;
61673;SDS011;47573;43.832;5.974;2023-03-14T17:31:27;224.18;;;154.18;;
61673;SDS011;47573;43.832;5.974;2023-03-14T17:38:09;231.07;;;159.93;;
61673;SDS011;47573;43.832;5.974;2023-03-14T17:44:50;243.63;;;167.60;;
61673;SDS011;47573;43.832;5.974;2023-03-14T17:51:30;256.70;;;174.60;;
61673;SDS011;47573;43.832;5.974;2023-03-14T17:58:12;266.30;;;187.17;;
61673;SDS011;47573;43.832;5.974;2023-03-14T18:04:53;267.57;;;186.13;;
61673;SDS011;47573;43.832;5.974;2023-03-14T18:11:33;285.25;;;201.45;;
61673;SDS011;47573;43.832;5.974;2023-03-14T18:18:15;299.57;;;213.57;;
61673;SDS011;47573;43.832;5.974;2023-03-14T18:24:56;296.63;;;215.13;;
61673;SDS011;47573;43.832;5.974;2023-03-14T18:31:36;300.20;;;220.98;;
61673;SDS011;47573;43.832;5.974;2023-03-14T18:38:18;321.97;;;237.10;;
61673;SDS011;47573;43.832;5.974;2023-03-14T18:44:59;304.08;;;221.38;;
61673;SDS011;47573;43.832;5.974;2023-03-14T18:51:40;277.80;;;200.85;;
61673;SDS011;47573;43.832;5.974;2023-03-14T18:58:22;270.58;;;198.05;;
61673;SDS011;47573;43.832;5.974;2023-03-14T19:05:02;313.15;;;231.15;;
61673;SDS011;47573;43.832;5.974;2023-03-14T19:11:43;320.75;;;235.60;;
61673;SDS011;47573;43.832;5.974;2023-03-14T19:18:25;340.13;;;252.60;;
61673;SDS011;47573;43.832;5.974;2023-03-14T19:25:06;361.77;;;270.00;;
61673;SDS011;47573;43.832;5.974;2023-03-14T19:31:48;329.65;;;243.93;;
61673;SDS011;47573;43.832;5.974;2023-03-14T19:38:29;353.80;;;266.97;;
61673;SDS011;47573;43.832;5.974;2023-03-14T19:45:10;361.97;;;274.27;;
61673;SDS011;47573;43.832;5.974;2023-03-14T19:51:51;382.08;;;278.20;;
61673;SDS011;47573;43.832;5.974;2023-03-14T19:58:33;353.23;;;266.60;;
61673;SDS011;47573;43.832;5.974;2023-03-14T20:05:13;361.70;;;272.47;;
61673;SDS011;47573;43.832;5.974;2023-03-14T20:11:54;385.88;;;290.25;;
61673;SDS011;47573;43.832;5.974;2023-03-14T20:18:36;230.20;;;159.53;;
61673;SDS011;47573;43.832;5.974;2023-03-14T20:25:17;287.50;;;206.87;;
61673;SDS011;47573;43.832;5.974;2023-03-14T20:31:57;283.77;;;204.88;;
61673;SDS011;47573;43.832;5.974;2023-03-14T20:56:18;350.50;;;267.95;;
61673;SDS011;47573;43.832;5.974;2023-03-14T21:02:58;371.23;;;278.97;;
61673;SDS011;47573;43.832;5.974;2023-03-14T21:09:39;375.40;;;281.73;;
61673;SDS011;47573;43.832;5.974;2023-03-14T21:16:21;378.43;;;277.80;;
61673;SDS011;47573;43.832;5.974;2023-03-14T21:23:01;362.70;;;265.73;;
61673;SDS011;47573;43.832;5.974;2023-03-14T21:29:42;358.45;;;263.65;;
61673;SDS011;47573;43.832;5.974;2023-03-14T21:36:24;352.97;;;257.00;;
61673;SDS011;47573;43.832;5.974;2023-03-14T21:43:05;348.30;;;251.47;;
61673;SDS011;47573;43.832;5.974;2023-03-14T21:49:45;350.52;;;250.10;;
61673;SDS011;47573;43.832;5.974;2023-03-14T21:56:27;355.33;;;254.13;;
61673;SDS011;47573;43.832;5.974;2023-03-14T22:03:08;365.38;;;266.58;;
61673;SDS011;47573;43.832;5.974;2023-03-14T22:09:48;373.20;;;271.85;;
61673;SDS011;47573;43.832;5.974;2023-03-14T22:16:30;374.03;;;265.60;;
61673;SDS011;47573;43.832;5.974;2023-03-14T22:23:11;367.50;;;262.77;;
61673;SDS011;47573;43.832;5.974;2023-03-14T22:29:52;396.80;;;285.80;;
61673;SDS011;47573;43.832;5.974;2023-03-14T22:36:33;394.63;;;280.03;;
61673;SDS011;47573;43.832;5.974;2023-03-14T22:43:14;389.25;;;280.33;;
61673;SDS011;47573;43.832;5.974;2023-03-14T22:49:54;398.88;;;287.67;;
61673;SDS011;47573;43.832;5.974;2023-03-14T22:56:36;412.07;;;293.37;;
61673;SDS011;47573;43.832;5.974;2023-03-14T23:03:17;434.65;;;306.15;;
61673;SDS011;47573;43.832;5.974;2023-03-14T23:09:57;434.43;;;307.63;;
61673;SDS011;47573;43.832;5.974;2023-03-14T23:16:39;450.63;;;318.87;;
61673;SDS011;47573;43.832;5.974;2023-03-14T23:23:20;456.00;;;329.30;;
61673;SDS011;47573;43.832;5.974;2023-03-14T23:30:00;455.87;;;324.40;;
61673;SDS011;47573;43.832;5.974;2023-03-14T23:36:42;462.63;;;329.27;;
61673;SDS011;47573;43.832;5.974;2023-03-14T23:43:23;464.52;;;335.35;;
61673;SDS011;47573;43.832;5.974;2023-03-14T23:50:04;466.05;;;334.17;;
61673;SDS011;47573;43.832;5.974;2023-03-14T23:56:46;467.55;;;336.02;;
